sensor_id;sensor_type;location;lat;lon;timestamp;temperature;humidity
28171;DHT22;15458;53.346;-1.688;2022-12-19T00:01:30;7.40;99.90
28171;DHT22;15458;53.346;-1.688;2022-12-19T00:04:08;7.50;99.90
28171;DHT22;15458;53.346;-1.688;2022-12-19T00:06:38;7.50;99.90
28171;DHT22;15458;53.346;-1.688;2022-12-19T00:09:07;7.50;99.90
28171;DHT22;15458;53.346;-1.688;2022-12-19T00:11:36;7.60;99.90
28171;DHT22;15458;53.346;-1.688;2022-12-19T00:14:05;7.60;99.90
28171;DHT22;15458;53.346;-1.688;2022-12-19T00:16:37;7.60;99.90
28171;DHT22;15458;53.346;-1.688;2022-12-19T00:19:03;7.60;99.90
28171;DHT22;15458;53.346;-1.688;2022-12-19T00:21:31;7.70;99.90
28171;DHT22;15458;53.346;-1.688;2022-12-19T00:24:00;7.70;99.90
28171;DHT22;15458;53.346;-1.688;2022-12-19T00:26:37;7.70;99.90
28171;DHT22;15458;53.346;-1.688;2022-12-19T00:29:11;7.70;99.90
28171;DHT22;15458;53.346;-1.688;2022-12-19T00:31:44;7.80;99.90
28171;DHT22;15458;53.346;-1.688;2022-12-19T00:34:12;7.80;99.90
28171;DHT22;15458;53.346;-1.688;2022-12-19T00:36:40;7.80;99.90
28171;DHT22;15458;53.346;-1.688;2022-12-19T00:39:06;7.80;99.90
28171;DHT22;15458;53.346;-1.688;2022-12-19T00:41:33;7.80;99.90
28171;DHT22;15458;53.346;-1.688;2022-12-19T00:44:03;7.90;99.90
28171;DHT22;15458;53.346;-1.688;2022-12-19T00:46:29;7.90;99.90
28171;DHT22;15458;53.346;-1.688;2022-12-19T00:48:57;7.90;99.90
28171;DHT22;15458;53.346;-1.688;2022-12-19T00:51:26;7.90;99.90
28171;DHT22;15458;53.346;-1.688;2022-12-19T00:53:54;8.00;99.90
28171;DHT22;15458;53.346;-1.688;2022-12-19T00:56:32;8.00;99.90
28171;DHT22;15458;53.346;-1.688;2022-12-19T00:58:59;8.00;99.90
28171;DHT22;15458;53.346;-1.688;2022-12-19T01:01:32;8.00;99.90
28171;DHT22;15458;53.346;-1.688;2022-12-19T01:04:00;8.00;99.90
28171;DHT22;15458;53.346;-1.688;2022-12-19T01:06:27;8.00;99.90
28171;DHT22;15458;53.346;-1.688;2022-12-19T01:08:54;8.10;99.90
28171;DHT22;15458;53.346;-1.688;2022-12-19T01:11:22;8.10;99.90
28171;DHT22;15458;53.346;-1.688;2022-12-19T01:14:13;8.10;99.90
28171;DHT22;15458;53.346;-1.688;2022-12-19T01:16:41;8.20;99.90
28171;DHT22;15458;53.346;-1.688;2022-12-19T01:19:07;8.20;99.90
28171;DHT22;15458;53.346;-1.688;2022-12-19T01:21:33;8.30;99.90
28171;DHT22;15458;53.346;-1.688;2022-12-19T01:24:01;8.30;99.90
28171;DHT22;15458;53.346;-1.688;2022-12-19T01:26:32;8.40;99.90
28171;DHT22;15458;53.346;-1.688;2022-12-19T01:28:58;8.40;99.90
28171;DHT22;15458;53.346;-1.688;2022-12-19T01:31:25;8.40;99.90
28171;DHT22;15458;53.346;-1.688;2022-12-19T01:33:52;8.40;99.90
28171;DHT22;15458;53.346;-1.688;2022-12-19T01:36:18;8.50;99.90
28171;DHT22;15458;53.346;-1.688;2022-12-19T01:38:50;8.50;99.90
28171;DHT22;15458;53.346;-1.688;2022-12-19T01:41:20;8.50;99.90
28171;DHT22;15458;53.346;-1.688;2022-12-19T01:44:01;8.60;99.90
28171;DHT22;15458;53.346;-1.688;2022-12-19T01:46:53;8.60;99.90
28171;DHT22;15458;53.346;-1.688;2022-12-19T01:49:34;8.60;99.90
28171;DHT22;15458;53.346;-1.688;2022-12-19T01:52:04;8.60;99.90
28171;DHT22;15458;53.346;-1.688;2022-12-19T01:54:36;8.60;99.90
28171;DHT22;15458;53.346;-1.688;2022-12-19T01:57:07;8.70;99.90
28171;DHT22;15458;53.346;-1.688;2022-12-19T01:59:44;8.70;99.90
28171;DHT22;15458;53.346;-1.688;2022-12-19T02:02:13;8.70;99.90
28171;DHT22;15458;53.346;-1.688;2022-12-19T02:04:44;8.70;99.90
28171;DHT22;15458;53.346;-1.688;2022-12-19T02:07:10;8.70;99.90
28171;DHT22;15458;53.346;-1.688;2022-12-19T02:09:36;8.80;99.90
28171;DHT22;15458;53.346;-1.688;2022-12-19T02:12:03;8.70;99.90
28171;DHT22;15458;53.346;-1.688;2022-12-19T02:14:28;8.70;99.90
28171;DHT22;15458;53.346;-1.688;2022-12-19T02:31:35;8.70;99.90
28171;DHT22;15458;53.346;-1.688;2022-12-19T02:36:46;8.80;99.90
28171;DHT22;15458;53.346;-1.688;2022-12-19T02:39:25;8.80;99.90
28171;DHT22;15458;53.346;-1.688;2022-12-19T02:41:59;8.90;99.90
28171;DHT22;15458;53.346;-1.688;2022-12-19T02:47:01;8.80;99.90
28171;DHT22;15458;53.346;-1.688;2022-12-19T02:49:33;8.80;99.90
28171;DHT22;15458;53.346;-1.688;2022-12-19T02:55:04;8.90;99.90
28171;DHT22;15458;53.346;-1.688;2022-12-19T02:58:14;8.90;99.90
28171;DHT22;15458;53.346;-1.688;2022-12-19T03:08:58;8.80;99.90
28171;DHT22;15458;53.346;-1.688;2022-12-19T03:11:31;8.80;99.90
28171;DHT22;15458;53.346;-1.688;2022-12-19T03:14:02;8.80;99.90
28171;DHT22;15458;53.346;-1.688;2022-12-19T03:16:34;8.90;99.90
28171;DHT22;15458;53.346;-1.688;2022-12-19T03:19:02;9.00;99.90
28171;DHT22;15458;53.346;-1.688;2022-12-19T03:21:34;9.00;99.90
28171;DHT22;15458;53.346;-1.688;2022-12-19T03:24:02;9.10;99.90
28171;DHT22;15458;53.346;-1.688;2022-12-19T03:26:31;9.10;99.90
28171;DHT22;15458;53.346;-1.688;2022-12-19T03:29:12;9.10;99.90
28171;DHT22;15458;53.346;-1.688;2022-12-19T03:31:41;9.20;99.90
28171;DHT22;15458;53.346;-1.688;2022-12-19T03:34:27;9.20;99.90
28171;DHT22;15458;53.346;-1.688;2022-12-19T03:36:56;9.20;99.90
28171;DHT22;15458;53.346;-1.688;2022-12-19T03:39:24;9.20;99.90
28171;DHT22;15458;53.346;-1.688;2022-12-19T03:41:51;9.20;99.90
28171;DHT22;15458;53.346;-1.688;2022-12-19T03:44:39;9.30;99.90
28171;DHT22;15458;53.346;-1.688;2022-12-19T03:49:45;9.40;99.90
28171;DHT22;15458;53.346;-1.688;2022-12-19T03:57:54;9.40;99.90
28171;DHT22;15458;53.346;-1.688;2022-12-19T04:00:22;9.40;99.90
28171;DHT22;15458;53.346;-1.688;2022-12-19T04:02:52;9.40;99.90
28171;DHT22;15458;53.346;-1.688;2022-12-19T04:05:21;9.50;99.90
28171;DHT22;15458;53.346;-1.688;2022-12-19T04:07:49;9.50;99.90
28171;DHT22;15458;53.346;-1.688;2022-12-19T04:10:19;9.50;99.90
28171;DHT22;15458;53.346;-1.688;2022-12-19T04:12:58;9.50;99.90
28171;DHT22;15458;53.346;-1.688;2022-12-19T04:18:40;9.60;99.90
28171;DHT22;15458;53.346;-1.688;2022-12-19T04:21:26;9.70;99.90
28171;DHT22;15458;53.346;-1.688;2022-12-19T04:24:01;9.70;99.90
28171;DHT22;15458;53.346;-1.688;2022-12-19T04:26:30;9.70;99.90
28171;DHT22;15458;53.346;-1.688;2022-12-19T04:28:59;9.80;99.90
28171;DHT22;15458;53.346;-1.688;2022-12-19T04:31:27;9.80;99.90
28171;DHT22;15458;53.346;-1.688;2022-12-19T04:33:52;9.80;99.90
28171;DHT22;15458;53.346;-1.688;2022-12-19T04:36:18;9.80;99.90
28171;DHT22;15458;53.346;-1.688;2022-12-19T04:38:44;9.80;99.90
28171;DHT22;15458;53.346;-1.688;2022-12-19T04:41:09;9.80;99.90
28171;DHT22;15458;53.346;-1.688;2022-12-19T04:43:35;9.90;99.90
28171;DHT22;15458;53.346;-1.688;2022-12-19T04:46:01;9.90;99.90
28171;DHT22;15458;53.346;-1.688;2022-12-19T04:48:26;9.90;99.90
28171;DHT22;15458;53.346;-1.688;2022-12-19T04:50:52;9.90;99.90
28171;DHT22;15458;53.346;-1.688;2022-12-19T04:53:19;9.90;99.90
28171;DHT22;15458;53.346;-1.688;2022-12-19T04:55:44;9.90;99.90
28171;DHT22;15458;53.346;-1.688;2022-12-19T04:58:10;10.00;99.90
28171;DHT22;15458;53.346;-1.688;2022-12-19T05:00:37;10.00;99.90
28171;DHT22;15458;53.346;-1.688;2022-12-19T05:03:03;10.00;99.90
28171;DHT22;15458;53.346;-1.688;2022-12-19T05:05:28;10.00;99.90
28171;DHT22;15458;53.346;-1.688;2022-12-19T05:07:54;10.10;99.90
28171;DHT22;15458;53.346;-1.688;2022-12-19T05:10:20;10.10;99.90
28171;DHT22;15458;53.346;-1.688;2022-12-19T05:12:45;10.10;99.90
28171;DHT22;15458;53.346;-1.688;2022-12-19T05:15:11;10.10;99.90
28171;DHT22;15458;53.346;-1.688;2022-12-19T05:17:37;10.10;99.90
28171;DHT22;15458;53.346;-1.688;2022-12-19T05:20:03;10.10;99.90
28171;DHT22;15458;53.346;-1.688;2022-12-19T05:22:29;10.20;99.90
28171;DHT22;15458;53.346;-1.688;2022-12-19T05:24:54;10.20;99.90
28171;DHT22;15458;53.346;-1.688;2022-12-19T05:27:20;10.20;99.90
28171;DHT22;15458;53.346;-1.688;2022-12-19T05:29:46;10.30;99.90
28171;DHT22;15458;53.346;-1.688;2022-12-19T05:32:11;10.30;99.90
28171;DHT22;15458;53.346;-1.688;2022-12-19T05:34:37;10.30;99.90
28171;DHT22;15458;53.346;-1.688;2022-12-19T05:37:03;10.30;99.90
28171;DHT22;15458;53.346;-1.688;2022-12-19T05:39:29;10.30;99.90
28171;DHT22;15458;53.346;-1.688;2022-12-19T05:41:55;10.40;99.90
28171;DHT22;15458;53.346;-1.688;2022-12-19T05:44:20;10.40;99.90
28171;DHT22;15458;53.346;-1.688;2022-12-19T05:46:46;10.50;99.90
28171;DHT22;15458;53.346;-1.688;2022-12-19T05:49:12;10.50;99.90
28171;DHT22;15458;53.346;-1.688;2022-12-19T05:51:37;10.50;99.90
28171;DHT22;15458;53.346;-1.688;2022-12-19T05:54:06;10.50;99.90
28171;DHT22;15458;53.346;-1.688;2022-12-19T05:56:31;10.60;99.90
28171;DHT22;15458;53.346;-1.688;2022-12-19T05:58:57;10.60;99.90
28171;DHT22;15458;53.346;-1.688;2022-12-19T06:01:25;10.60;99.90
28171;DHT22;15458;53.346;-1.688;2022-12-19T06:03:51;10.60;99.90
28171;DHT22;15458;53.346;-1.688;2022-12-19T06:06:22;10.70;99.90
28171;DHT22;15458;53.346;-1.688;2022-12-19T06:08:53;10.70;99.90
28171;DHT22;15458;53.346;-1.688;2022-12-19T06:11:18;10.70;99.90
28171;DHT22;15458;53.346;-1.688;2022-12-19T06:13:44;10.70;99.90
28171;DHT22;15458;53.346;-1.688;2022-12-19T06:16:12;10.70;99.90
28171;DHT22;15458;53.346;-1.688;2022-12-19T06:18:39;10.70;99.90
28171;DHT22;15458;53.346;-1.688;2022-12-19T06:21:10;10.70;99.90
28171;DHT22;15458;53.346;-1.688;2022-12-19T06:23:37;10.70;99.90
28171;DHT22;15458;53.346;-1.688;2022-12-19T06:26:05;10.80;99.90
28171;DHT22;15458;53.346;-1.688;2022-12-19T06:28:32;10.80;99.90
28171;DHT22;15458;53.346;-1.688;2022-12-19T06:30:59;10.80;99.90
28171;DHT22;15458;53.346;-1.688;2022-12-19T06:33:25;10.80;99.90
28171;DHT22;15458;53.346;-1.688;2022-12-19T06:36:03;10.90;99.90
28171;DHT22;15458;53.346;-1.688;2022-12-19T06:38:29;10.90;99.90
28171;DHT22;15458;53.346;-1.688;2022-12-19T06:40:55;10.90;99.90
28171;DHT22;15458;53.346;-1.688;2022-12-19T06:43:40;10.90;99.90
28171;DHT22;15458;53.346;-1.688;2022-12-19T06:46:06;10.90;99.90
28171;DHT22;15458;53.346;-1.688;2022-12-19T06:48:31;11.00;99.90
28171;DHT22;15458;53.346;-1.688;2022-12-19T06:50:57;11.00;99.90
28171;DHT22;15458;53.346;-1.688;2022-12-19T06:53:25;11.00;99.90
28171;DHT22;15458;53.346;-1.688;2022-12-19T06:55:54;11.00;99.90
28171;DHT22;15458;53.346;-1.688;2022-12-19T06:58:20;11.00;99.90
28171;DHT22;15458;53.346;-1.688;2022-12-19T07:00:46;11.10;99.90
28171;DHT22;15458;53.346;-1.688;2022-12-19T07:03:15;11.10;99.90
28171;DHT22;15458;53.346;-1.688;2022-12-19T07:05:41;11.10;99.90
28171;DHT22;15458;53.346;-1.688;2022-12-19T07:08:07;11.20;99.90
28171;DHT22;15458;53.346;-1.688;2022-12-19T07:10:33;11.20;99.90
28171;DHT22;15458;53.346;-1.688;2022-12-19T07:12:59;11.20;99.90
28171;DHT22;15458;53.346;-1.688;2022-12-19T07:15:25;11.20;99.90
28171;DHT22;15458;53.346;-1.688;2022-12-19T07:17:51;11.20;99.90
28171;DHT22;15458;53.346;-1.688;2022-12-19T07:20:18;11.20;99.90
28171;DHT22;15458;53.346;-1.688;2022-12-19T07:22:45;11.30;99.90
28171;DHT22;15458;53.346;-1.688;2022-12-19T07:25:12;11.30;99.90
28171;DHT22;15458;53.346;-1.688;2022-12-19T07:27:37;11.30;99.90
28171;DHT22;15458;53.346;-1.688;2022-12-19T07:30:05;11.30;99.90
28171;DHT22;15458;53.346;-1.688;2022-12-19T07:32:32;11.30;99.90
28171;DHT22;15458;53.346;-1.688;2022-12-19T07:34:58;11.30;99.90
28171;DHT22;15458;53.346;-1.688;2022-12-19T07:37:23;11.30;99.90
28171;DHT22;15458;53.346;-1.688;2022-12-19T07:39:49;11.30;99.90
28171;DHT22;15458;53.346;-1.688;2022-12-19T07:42:14;11.20;99.90
28171;DHT22;15458;53.346;-1.688;2022-12-19T07:44:40;11.30;99.90
28171;DHT22;15458;53.346;-1.688;2022-12-19T07:47:06;11.30;99.90
28171;DHT22;15458;53.346;-1.688;2022-12-19T07:49:32;11.30;99.90
28171;DHT22;15458;53.346;-1.688;2022-12-19T07:51:57;11.30;99.90
28171;DHT22;15458;53.346;-1.688;2022-12-19T07:54:23;11.30;99.90
28171;DHT22;15458;53.346;-1.688;2022-12-19T07:56:50;11.30;99.90
28171;DHT22;15458;53.346;-1.688;2022-12-19T07:59:16;11.30;99.90
28171;DHT22;15458;53.346;-1.688;2022-12-19T08:01:42;11.30;99.90
28171;DHT22;15458;53.346;-1.688;2022-12-19T08:04:07;11.30;99.90
28171;DHT22;15458;53.346;-1.688;2022-12-19T08:06:33;11.40;99.90
28171;DHT22;15458;53.346;-1.688;2022-12-19T08:08:59;11.40;99.90
28171;DHT22;15458;53.346;-1.688;2022-12-19T08:11:24;11.50;99.90
28171;DHT22;15458;53.346;-1.688;2022-12-19T08:13:52;11.50;99.90
28171;DHT22;15458;53.346;-1.688;2022-12-19T08:16:19;11.50;99.90
28171;DHT22;15458;53.346;-1.688;2022-12-19T08:18:46;11.50;99.90
28171;DHT22;15458;53.346;-1.688;2022-12-19T08:21:12;11.50;99.90
28171;DHT22;15458;53.346;-1.688;2022-12-19T08:23:39;11.50;99.90
28171;DHT22;15458;53.346;-1.688;2022-12-19T08:26:07;11.50;99.90
28171;DHT22;15458;53.346;-1.688;2022-12-19T08:28:34;11.50;99.90
28171;DHT22;15458;53.346;-1.688;2022-12-19T08:31:15;11.50;99.90
28171;DHT22;15458;53.346;-1.688;2022-12-19T08:33:41;11.50;99.90
28171;DHT22;15458;53.346;-1.688;2022-12-19T08:36:10;11.50;99.90
28171;DHT22;15458;53.346;-1.688;2022-12-19T08:38:36;11.60;99.90
28171;DHT22;15458;53.346;-1.688;2022-12-19T08:41:02;11.60;99.90
28171;DHT22;15458;53.346;-1.688;2022-12-19T08:43:28;11.70;99.90
28171;DHT22;15458;53.346;-1.688;2022-12-19T08:45:55;11.70;99.90
28171;DHT22;15458;53.346;-1.688;2022-12-19T08:48:21;11.70;99.90
28171;DHT22;15458;53.346;-1.688;2022-12-19T08:50:53;11.70;99.90
28171;DHT22;15458;53.346;-1.688;2022-12-19T08:53:19;11.80;99.90
28171;DHT22;15458;53.346;-1.688;2022-12-19T08:55:46;11.80;99.90
28171;DHT22;15458;53.346;-1.688;2022-12-19T08:58:12;11.80;99.90
28171;DHT22;15458;53.346;-1.688;2022-12-19T09:00:37;11.80;99.90
28171;DHT22;15458;53.346;-1.688;2022-12-19T09:03:08;11.80;99.90
28171;DHT22;15458;53.346;-1.688;2022-12-19T09:05:38;11.80;99.90
28171;DHT22;15458;53.346;-1.688;2022-12-19T09:08:06;11.90;99.90
28171;DHT22;15458;53.346;-1.688;2022-12-19T09:10:35;11.90;99.90
28171;DHT22;15458;53.346;-1.688;2022-12-19T09:13:03;11.90;99.90
28171;DHT22;15458;53.346;-1.688;2022-12-19T09:15:29;11.90;99.90
28171;DHT22;15458;53.346;-1.688;2022-12-19T09:17:59;11.90;99.90
28171;DHT22;15458;53.346;-1.688;2022-12-19T09:20:25;12.00;99.90
28171;DHT22;15458;53.346;-1.688;2022-12-19T09:22:52;12.00;99.90
28171;DHT22;15458;53.346;-1.688;2022-12-19T09:25:18;12.00;99.90
28171;DHT22;15458;53.346;-1.688;2022-12-19T09:27:43;12.00;99.90
28171;DHT22;15458;53.346;-1.688;2022-12-19T09:30:09;12.00;99.90
28171;DHT22;15458;53.346;-1.688;2022-12-19T09:32:37;12.10;99.90
28171;DHT22;15458;53.346;-1.688;2022-12-19T09:35:03;12.10;99.90
28171;DHT22;15458;53.346;-1.688;2022-12-19T09:37:29;12.10;99.90
28171;DHT22;15458;53.346;-1.688;2022-12-19T09:39:55;12.10;99.90
28171;DHT22;15458;53.346;-1.688;2022-12-19T09:47:54;12.20;99.90
28171;DHT22;15458;53.346;-1.688;2022-12-19T09:53:00;12.10;99.90
28171;DHT22;15458;53.346;-1.688;2022-12-19T09:55:39;12.10;99.90
28171;DHT22;15458;53.346;-1.688;2022-12-19T10:00:55;12.10;99.90
28171;DHT22;15458;53.346;-1.688;2022-12-19T10:03:31;12.20;99.90
28171;DHT22;15458;53.346;-1.688;2022-12-19T10:06:20;12.20;99.90
28171;DHT22;15458;53.346;-1.688;2022-12-19T10:08:46;12.20;99.90
28171;DHT22;15458;53.346;-1.688;2022-12-19T10:19:35;12.20;99.90
28171;DHT22;15458;53.346;-1.688;2022-12-19T10:30:25;12.20;99.90
28171;DHT22;15458;53.346;-1.688;2022-12-19T10:33:23;12.20;99.90
28171;DHT22;15458;53.346;-1.688;2022-12-19T10:35:53;12.20;99.90
28171;DHT22;15458;53.346;-1.688;2022-12-19T10:38:55;12.20;99.90
28171;DHT22;15458;53.346;-1.688;2022-12-19T10:41:26;12.20;99.90
28171;DHT22;15458;53.346;-1.688;2022-12-19T10:44:00;12.20;99.90
28171;DHT22;15458;53.346;-1.688;2022-12-19T10:46:40;12.20;99.90
28171;DHT22;15458;53.346;-1.688;2022-12-19T10:49:20;12.20;99.90
28171;DHT22;15458;53.346;-1.688;2022-12-19T10:54:24;12.20;99.90
28171;DHT22;15458;53.346;-1.688;2022-12-19T10:56:50;12.20;99.90
28171;DHT22;15458;53.346;-1.688;2022-12-19T10:59:18;12.20;99.90
28171;DHT22;15458;53.346;-1.688;2022-12-19T11:01:44;12.20;99.90
28171;DHT22;15458;53.346;-1.688;2022-12-19T11:04:18;12.20;99.90
28171;DHT22;15458;53.346;-1.688;2022-12-19T11:07:14;12.20;99.90
28171;DHT22;15458;53.346;-1.688;2022-12-19T11:09:41;12.20;99.90
28171;DHT22;15458;53.346;-1.688;2022-12-19T11:12:13;12.20;99.90
28171;DHT22;15458;53.346;-1.688;2022-12-19T11:15:13;12.20;99.90
28171;DHT22;15458;53.346;-1.688;2022-12-19T11:17:44;12.20;99.90
28171;DHT22;15458;53.346;-1.688;2022-12-19T11:20:19;12.20;99.90
28171;DHT22;15458;53.346;-1.688;2022-12-19T11:22:54;12.20;99.90
28171;DHT22;15458;53.346;-1.688;2022-12-19T11:25:30;12.20;99.90
28171;DHT22;15458;53.346;-1.688;2022-12-19T11:27:57;12.20;99.90
28171;DHT22;15458;53.346;-1.688;2022-12-19T11:30:24;12.20;99.90
28171;DHT22;15458;53.346;-1.688;2022-12-19T11:35:53;12.20;99.90
28171;DHT22;15458;53.346;-1.688;2022-12-19T11:38:34;12.30;99.90
28171;DHT22;15458;53.346;-1.688;2022-12-19T11:41:21;12.20;99.90
28171;DHT22;15458;53.346;-1.688;2022-12-19T11:43:57;12.20;99.90
28171;DHT22;15458;53.346;-1.688;2022-12-19T11:49:10;12.20;99.90
28171;DHT22;15458;53.346;-1.688;2022-12-19T11:52:37;12.20;99.90
28171;DHT22;15458;53.346;-1.688;2022-12-19T11:54:54;12.20;99.90
28171;DHT22;15458;53.346;-1.688;2022-12-19T11:57:21;12.20;99.90
28171;DHT22;15458;53.346;-1.688;2022-12-19T11:59:47;12.20;99.90
28171;DHT22;15458;53.346;-1.688;2022-12-19T12:02:28;12.20;99.90
28171;DHT22;15458;53.346;-1.688;2022-12-19T12:05:08;12.20;99.90
28171;DHT22;15458;53.346;-1.688;2022-12-19T12:07:45;12.20;99.90
28171;DHT22;15458;53.346;-1.688;2022-12-19T12:10:16;12.20;99.90
28171;DHT22;15458;53.346;-1.688;2022-12-19T12:13:15;12.10;99.90
28171;DHT22;15458;53.346;-1.688;2022-12-19T12:18:44;12.10;99.90
28171;DHT22;15458;53.346;-1.688;2022-12-19T12:21:25;12.10;99.90
28171;DHT22;15458;53.346;-1.688;2022-12-19T12:26:33;12.10;99.90
28171;DHT22;15458;53.346;-1.688;2022-12-19T12:40:26;12.20;99.90
28171;DHT22;15458;53.346;-1.688;2022-12-19T12:45:48;12.30;99.90
28171;DHT22;15458;53.346;-1.688;2022-12-19T12:50:48;12.40;99.90
28171;DHT22;15458;53.346;-1.688;2022-12-19T12:53:18;12.40;99.90
28171;DHT22;15458;53.346;-1.688;2022-12-19T12:55:45;12.40;99.90
28171;DHT22;15458;53.346;-1.688;2022-12-19T13:01:24;12.50;99.90
28171;DHT22;15458;53.346;-1.688;2022-12-19T13:09:27;12.50;99.90
28171;DHT22;15458;53.346;-1.688;2022-12-19T13:12:27;12.50;99.90
28171;DHT22;15458;53.346;-1.688;2022-12-19T13:18:33;12.40;99.90
28171;DHT22;15458;53.346;-1.688;2022-12-19T13:21:01;12.40;99.90
28171;DHT22;15458;53.346;-1.688;2022-12-19T13:26:02;12.50;99.90
28171;DHT22;15458;53.346;-1.688;2022-12-19T13:28:37;12.50;99.90
28171;DHT22;15458;53.346;-1.688;2022-12-19T13:36:48;12.60;99.90
28171;DHT22;15458;53.346;-1.688;2022-12-19T13:39:33;12.60;99.90
28171;DHT22;15458;53.346;-1.688;2022-12-19T13:44:53;12.60;99.90
28171;DHT22;15458;53.346;-1.688;2022-12-19T13:47:20;12.60;99.90
28171;DHT22;15458;53.346;-1.688;2022-12-19T13:49:46;12.60;99.90
28171;DHT22;15458;53.346;-1.688;2022-12-19T13:52:12;12.60;99.90
28171;DHT22;15458;53.346;-1.688;2022-12-19T13:54:50;12.50;99.90
28171;DHT22;15458;53.346;-1.688;2022-12-19T13:57:25;12.50;99.90
28171;DHT22;15458;53.346;-1.688;2022-12-19T13:59:53;12.50;99.90
28171;DHT22;15458;53.346;-1.688;2022-12-19T14:02:27;12.50;99.90
28171;DHT22;15458;53.346;-1.688;2022-12-19T14:04:54;12.50;99.90
28171;DHT22;15458;53.346;-1.688;2022-12-19T14:09:52;12.60;99.90
28171;DHT22;15458;53.346;-1.688;2022-12-19T14:12:25;12.60;99.90
28171;DHT22;15458;53.346;-1.688;2022-12-19T14:18:08;12.60;99.90
28171;DHT22;15458;53.346;-1.688;2022-12-19T14:20:40;12.60;99.90
28171;DHT22;15458;53.346;-1.688;2022-12-19T14:23:05;12.70;99.90
28171;DHT22;15458;53.346;-1.688;2022-12-19T14:25:45;12.70;99.90
28171;DHT22;15458;53.346;-1.688;2022-12-19T14:28:42;12.70;99.90
28171;DHT22;15458;53.346;-1.688;2022-12-19T14:31:13;12.70;99.90
28171;DHT22;15458;53.346;-1.688;2022-12-19T14:33:46;12.70;99.90
28171;DHT22;15458;53.346;-1.688;2022-12-19T14:36:13;12.70;99.90
28171;DHT22;15458;53.346;-1.688;2022-12-19T14:38:52;12.70;99.90
28171;DHT22;15458;53.346;-1.688;2022-12-19T14:41:43;12.60;99.90
28171;DHT22;15458;53.346;-1.688;2022-12-19T14:44:46;12.60;99.90
28171;DHT22;15458;53.346;-1.688;2022-12-19T14:47:21;12.50;99.90
28171;DHT22;15458;53.346;-1.688;2022-12-19T14:49:54;12.40;99.90
28171;DHT22;15458;53.346;-1.688;2022-12-19T14:52:41;12.40;99.90
28171;DHT22;15458;53.346;-1.688;2022-12-19T14:57:47;12.50;99.90
28171;DHT22;15458;53.346;-1.688;2022-12-19T15:00:40;12.50;99.90
28171;DHT22;15458;53.346;-1.688;2022-12-19T15:03:08;12.50;99.90
28171;DHT22;15458;53.346;-1.688;2022-12-19T15:05:33;12.50;99.90
28171;DHT22;15458;53.346;-1.688;2022-12-19T15:08:09;12.60;99.90
28171;DHT22;15458;53.346;-1.688;2022-12-19T15:10:35;12.50;99.90
28171;DHT22;15458;53.346;-1.688;2022-12-19T15:13:14;12.50;99.90
28171;DHT22;15458;53.346;-1.688;2022-12-19T15:15:54;12.50;99.90
28171;DHT22;15458;53.346;-1.688;2022-12-19T15:18:59;12.50;99.90
28171;DHT22;15458;53.346;-1.688;2022-12-19T15:21:27;12.40;99.90
28171;DHT22;15458;53.346;-1.688;2022-12-19T15:23:55;12.40;99.90
28171;DHT22;15458;53.346;-1.688;2022-12-19T15:26:33;12.40;99.90
28171;DHT22;15458;53.346;-1.688;2022-12-19T15:28:59;12.40;99.90
28171;DHT22;15458;53.346;-1.688;2022-12-19T15:31:33;12.40;99.90
28171;DHT22;15458;53.346;-1.688;2022-12-19T15:34:11;12.40;99.90
28171;DHT22;15458;53.346;-1.688;2022-12-19T15:36:44;12.40;99.90
28171;DHT22;15458;53.346;-1.688;2022-12-19T15:39:09;12.30;99.90
28171;DHT22;15458;53.346;-1.688;2022-12-19T15:41:35;12.40;99.90
28171;DHT22;15458;53.346;-1.688;2022-12-19T15:44:12;12.30;99.90
28171;DHT22;15458;53.346;-1.688;2022-12-19T15:46:40;12.40;99.90
28171;DHT22;15458;53.346;-1.688;2022-12-19T15:49:15;12.40;99.90
28171;DHT22;15458;53.346;-1.688;2022-12-19T15:51:41;12.40;99.90
28171;DHT22;15458;53.346;-1.688;2022-12-19T15:54:07;12.40;99.90
28171;DHT22;15458;53.346;-1.688;2022-12-19T15:56:36;12.40;99.90
28171;DHT22;15458;53.346;-1.688;2022-12-19T15:59:03;12.40;99.90
28171;DHT22;15458;53.346;-1.688;2022-12-19T16:01:29;12.50;99.90
28171;DHT22;15458;53.346;-1.688;2022-12-19T16:03:59;12.50;99.90
28171;DHT22;15458;53.346;-1.688;2022-12-19T16:06:25;12.50;99.90
28171;DHT22;15458;53.346;-1.688;2022-12-19T16:08:51;12.50;99.90
28171;DHT22;15458;53.346;-1.688;2022-12-19T16:11:22;12.50;99.90
28171;DHT22;15458;53.346;-1.688;2022-12-19T16:13:52;12.50;99.90
28171;DHT22;15458;53.346;-1.688;2022-12-19T16:16:18;12.50;99.90
28171;DHT22;15458;53.346;-1.688;2022-12-19T16:18:44;12.50;99.90
28171;DHT22;15458;53.346;-1.688;2022-12-19T16:21:22;12.50;99.90
28171;DHT22;15458;53.346;-1.688;2022-12-19T16:23:49;12.50;99.90
28171;DHT22;15458;53.346;-1.688;2022-12-19T16:26:32;12.50;99.90
28171;DHT22;15458;53.346;-1.688;2022-12-19T16:28:59;12.50;99.90
28171;DHT22;15458;53.346;-1.688;2022-12-19T16:31:28;12.50;99.90
28171;DHT22;15458;53.346;-1.688;2022-12-19T16:34:00;12.50;99.90
28171;DHT22;15458;53.346;-1.688;2022-12-19T16:36:26;12.50;99.90
28171;DHT22;15458;53.346;-1.688;2022-12-19T16:38:52;12.50;99.90
28171;DHT22;15458;53.346;-1.688;2022-12-19T16:41:23;12.50;99.90
28171;DHT22;15458;53.346;-1.688;2022-12-19T16:43:49;12.50;99.90
28171;DHT22;15458;53.346;-1.688;2022-12-19T16:46:19;12.40;99.90
28171;DHT22;15458;53.346;-1.688;2022-12-19T16:48:47;12.40;99.90
28171;DHT22;15458;53.346;-1.688;2022-12-19T16:51:20;12.40;99.90
28171;DHT22;15458;53.346;-1.688;2022-12-19T16:53:48;12.40;99.90
28171;DHT22;15458;53.346;-1.688;2022-12-19T16:56:40;12.40;99.90
28171;DHT22;15458;53.346;-1.688;2022-12-19T16:59:29;12.40;99.90
28171;DHT22;15458;53.346;-1.688;2022-12-19T17:05:08;12.50;99.90
28171;DHT22;15458;53.346;-1.688;2022-12-19T17:07:46;12.40;99.90
28171;DHT22;15458;53.346;-1.688;2022-12-19T17:10:16;12.40;99.90
28171;DHT22;15458;53.346;-1.688;2022-12-19T17:12:43;12.40;99.90
28171;DHT22;15458;53.346;-1.688;2022-12-19T17:15:29;12.40;99.90
28171;DHT22;15458;53.346;-1.688;2022-12-19T17:18:10;12.40;99.90
28171;DHT22;15458;53.346;-1.688;2022-12-19T17:20:45;12.40;99.90
28171;DHT22;15458;53.346;-1.688;2022-12-19T17:23:20;12.30;99.90
28171;DHT22;15458;53.346;-1.688;2022-12-19T17:25:47;12.30;99.90
28171;DHT22;15458;53.346;-1.688;2022-12-19T17:28:14;12.30;99.90
28171;DHT22;15458;53.346;-1.688;2022-12-19T17:30:42;12.30;99.90
28171;DHT22;15458;53.346;-1.688;2022-12-19T17:33:15;12.30;99.90
28171;DHT22;15458;53.346;-1.688;2022-12-19T17:35:41;12.30;99.90
28171;DHT22;15458;53.346;-1.688;2022-12-19T17:38:10;12.30;99.90
28171;DHT22;15458;53.346;-1.688;2022-12-19T17:40:37;12.30;99.90
28171;DHT22;15458;53.346;-1.688;2022-12-19T17:43:03;12.30;99.90
28171;DHT22;15458;53.346;-1.688;2022-12-19T17:45:30;12.20;99.90
28171;DHT22;15458;53.346;-1.688;2022-12-19T17:48:02;12.20;99.90
28171;DHT22;15458;53.346;-1.688;2022-12-19T17:50:33;12.20;99.90
28171;DHT22;15458;53.346;-1.688;2022-12-19T17:52:59;12.20;99.90
28171;DHT22;15458;53.346;-1.688;2022-12-19T17:55:29;12.20;99.90
28171;DHT22;15458;53.346;-1.688;2022-12-19T17:57:57;12.20;99.90